Météo Nord-Pas-de-Calais   La météo au plus près de chez vous

Station météorologique

Observations météo à Brive-Souillac (19147)

19147001 295 m Dernier relevé à 15:36
28.7°C
Humidité 30 % Vent 9 km/h 1023.2 hPa

Journée consultée

Jeudi 3 Septembre 2026

Synthèse de la journée

Périodes de référence en UTC

Température maximale

28.7°C

à 15:36

06h 06h

Température minimale

11.2°C

à 07:30

18h 18h

Rafale maximale

28 km/h

à 15:24

00h 00h

Précipitations

0 mm

Cumul quotidien

06h 06h

Graphiques de la journée

Heure locale Réduire

Données détaillées

Relevés météo

Pas de 6 minutes Afficher les relevés infra-horaires
Relevés météo détaillés à Brive-Souillac pour le Jeudi 3 Septembre 2026
Heure Température °C Point de rosée °C Humidité % Vent moyen (raf.), km/h Précipitations mm Visibilité m Pression hPa
15:36 28.7 °C 7.3 °C 26 % 10 km/h (19 km/h) 0 mm0 mm 60000 m 1022.8 hPa
15:30 28.6 °C 7.8 °C 27 % 12 km/h (28 km/h) 0 mm0 mm 60000 m 1022.8 hPa
15:24 28.5 °C 7.7 °C 27 % 10 km/h (28 km/h) 0 mm0 mm 60000 m 1022.9 hPa
15:18 28.5 °C 7.7 °C 27 % 9 km/h (15 km/h) 0 mm0 mm 60000 m 1022.8 hPa
15:12 28.2 °C 6.9 °C 26 % 10 km/h (16 km/h) 0 mm0 mm 60000 m 1023 hPa
15:06 28.4 °C 7.6 °C 27 % 8 km/h (16 km/h) 0 mm0 mm 60000 m 1022.9 hPa
15:00 28 °C 7.3 °C 27 % 10 km/h (21 km/h) 0 mm0 mm 60000 m 1023 hPa
14:54 28.1 °C 6.8 °C 26 % 10 km/h (21 km/h) 0 mm0 mm 60000 m 1023.1 hPa
14:48 28 °C 7.8 °C 28 % 10 km/h (17 km/h) 0 mm0 mm 60000 m 1023.1 hPa
14:42 28.2 °C 8.5 °C 29 % 9 km/h (16 km/h) 0 mm0 mm 60000 m 1023.2 hPa
14:36 27.9 °C 8.7 °C 30 % 9 km/h (18 km/h) 0 mm0 mm 60000 m 1023.2 hPa
14:30 27.6 °C 9.9 °C 33 % 9 km/h (18 km/h) 0 mm0 mm 60000 m 1023.2 hPa
14:24 27.8 °C 9.6 °C 32 % 6 km/h (14 km/h) 0 mm0 mm 60000 m 1023.3 hPa
14:18 27.3 °C 8.7 °C 31 % 7 km/h (16 km/h) 0 mm0 mm 60000 m 1023.4 hPa
14:12 27.6 °C 8.9 °C 31 % 7 km/h (16 km/h) 0 mm0 mm 60000 m 1023.4 hPa
14:06 27.6 °C 9.9 °C 33 % 5 km/h (17 km/h) 0 mm0 mm 60000 m 1023.4 hPa
14:00 27.3 °C 8.7 °C 31 % 8 km/h (18 km/h) 0 mm0 mm 60000 m 1023.5 hPa
13:54 26.8 °C 10.5 °C 36 % 11 km/h (20 km/h) 0 mm0 mm 60000 m 1023.6 hPa
13:48 26.7 °C 10.4 °C 36 % 10 km/h (20 km/h) 0 mm0 mm 60000 m 1023.6 hPa
13:42 26.7 °C 11.6 °C 39 % 6 km/h (18 km/h) 0 mm0 mm 60000 m 1023.7 hPa
13:36 26.4 °C 12.1 °C 41 % 6 km/h (13 km/h) 0 mm0 mm 60000 m 1023.8 hPa
13:30 26.4 °C 11.7 °C 40 % 10 km/h (20 km/h) 0 mm0 mm 60000 m 1023.9 hPa
13:24 26.2 °C 11.9 °C 41 % 12 km/h (22 km/h) 0 mm0 mm 60000 m 1024 hPa
13:18 26.1 °C 11.8 °C 41 % 10 km/h (22 km/h) 0 mm0 mm 60000 m 1024 hPa
13:12 26.4 °C 12.5 °C 42 % 6 km/h (18 km/h) 0 mm0 mm 60000 m 1023.9 hPa
13:06 25.9 °C 11.6 °C 41 % 7 km/h (16 km/h) 0 mm0 mm 60000 m 1024.2 hPa
13:00 25.9 °C 11.3 °C 40 % 11 km/h (21 km/h) 0 mm0 mm 60000 m 1024.2 hPa
12:54 25.9 °C 11.6 °C 41 % 8 km/h (21 km/h) 0 mm0 mm 60000 m 1024.2 hPa
12:48 25.8 °C 11.9 °C 42 % 5 km/h (12 km/h) 0 mm0 mm 60000 m 1024.2 hPa
12:42 25.7 °C 11.1 °C 40 % 6 km/h (11 km/h) 0 mm0 mm 60000 m 1024.3 hPa
12:36 25.2 °C 11.4 °C 42 % 8 km/h (14 km/h) 0 mm0 mm 60000 m 1024.4 hPa
12:30 24.9 °C 11.1 °C 42 % 9 km/h (14 km/h) 0 mm0 mm 60000 m 1024.5 hPa
12:24 24.8 °C 11.7 °C 44 % 9 km/h (15 km/h) 0 mm0 mm 60000 m 1024.4 hPa
12:18 24.7 °C 12 °C 45 % 8 km/h (17 km/h) 0 mm0 mm 60000 m 1024.4 hPa
12:12 24.4 °C 12.4 °C 47 % 6 km/h (17 km/h) 0 mm0 mm 60000 m 1024.5 hPa
12:06 24.1 °C 12.4 °C 48 % 6 km/h (11 km/h) 0 mm0 mm 60000 m 1024.5 hPa
12:00 24.4 °C 12.7 °C 48 % 8 km/h (17 km/h) 0 mm0 mm 60000 m 1024.5 hPa
11:54 24.3 °C 12.6 °C 48 % 6 km/h (17 km/h) 0 mm0 mm 60000 m 1024.5 hPa
11:48 24.2 °C 12.2 °C 47 % 5 km/h (11 km/h) 0 mm0 mm 60000 m 1024.5 hPa
11:42 23.8 °C 12.1 °C 48 % 6 km/h (12 km/h) 0 mm0 mm 60000 m 1024.6 hPa
11:36 23.6 °C 12.6 °C 50 % 6 km/h (10 km/h) 0 mm0 mm 60000 m 1024.7 hPa
11:30 23.1 °C 12.1 °C 50 % 7 km/h (11 km/h) 0 mm0 mm 60000 m 1024.8 hPa
11:24 23.5 °C 11.9 °C 48 % 7 km/h (11 km/h) 0 mm0 mm 60000 m 1024.7 hPa
11:18 23.6 °C 12.3 °C 49 % 5 km/h (11 km/h) 0 mm0 mm 60000 m 1024.7 hPa
11:12 23.3 °C 12.6 °C 51 % 5 km/h (10 km/h) 0 mm0 mm 60000 m 1024.7 hPa
11:06 23.3 °C 12.9 °C 52 % 4 km/h (9 km/h) 0 mm0 mm 60000 m 1024.7 hPa
11:00 23.1 °C 13 °C 53 % 3 km/h (9 km/h) 0 mm0 mm 60000 m 1024.8 hPa
10:54 22.7 °C 12.9 °C 54 % 3 km/h (8 km/h) 0 mm0 mm 60000 m 1024.8 hPa
10:48 22.5 °C 12.7 °C 54 % 4 km/h (7 km/h) 0 mm0 mm 60000 m 1024.8 hPa
10:42 22.3 °C 13.1 °C 56 % 4 km/h (8 km/h) 0 mm0 mm 60000 m 1024.8 hPa
10:36 22.3 °C 13.1 °C 56 % 3 km/h (7 km/h) 0 mm0 mm 60000 m 1024.8 hPa
10:30 22 °C 13.1 °C 57 % 3 km/h (5 km/h) 0 mm0 mm 60000 m 1024.8 hPa
10:24 21.7 °C 13.1 °C 58 % 3 km/h (5 km/h) 0 mm0 mm 60000 m 1024.9 hPa
10:18 21.6 °C 13 °C 58 % 3 km/h (4 km/h) 0 mm0 mm 60000 m 1024.9 hPa
10:12 21.3 °C 13.2 °C 60 % 3 km/h (5 km/h) 0 mm0 mm 60000 m 1024.9 hPa
10:06 20.5 °C 12.7 °C 61 % 2 km/h (5 km/h) 0 mm0 mm 60000 m 1025 hPa
10:00 20.3 °C 12.8 °C 62 % 2 km/h (3 km/h) 0 mm0 mm 60000 m 1025 hPa
09:54 19.6 °C 12.6 °C 64 % 2 km/h (4 km/h) 0 mm0 mm 60000 m 1025.2 hPa
09:48 19.3 °C 12.6 °C 65 % 2 km/h (4 km/h) 0 mm0 mm 60000 m 1025.2 hPa
09:42 19.4 °C 12.9 °C 66 % 2 km/h (4 km/h) 0 mm0 mm 60000 m 1025.1 hPa
09:36 18.7 °C 12.7 °C 68 % 2 km/h (4 km/h) 0 mm0 mm 60000 m 1025.3 hPa
09:30 18.3 °C 12.7 °C 70 % 2 km/h (5 km/h) 0 mm0 mm 60000 m 1025.3 hPa
09:24 18 °C 12.7 °C 71 % 3 km/h (5 km/h) 0 mm0 mm 60000 m 1025.2 hPa
09:18 17.8 °C 12.7 °C 72 % 3 km/h (5 km/h) 0 mm0 mm 60000 m 1025.4 hPa
09:12 17.4 °C 12.5 °C 73 % 3 km/h (5 km/h) 0 mm0 mm 60000 m 1025.3 hPa
09:06 17.4 °C 12.7 °C 74 % 2 km/h (5 km/h) 0 mm0 mm 60000 m 1025.3 hPa
09:00 17 °C 12.5 °C 75 % 2 km/h (4 km/h) 0 mm0 mm 60000 m 1025.3 hPa
08:54 16.5 °C 12.3 °C 76 % 3 km/h (4 km/h) 0 mm0 mm 60000 m 1025.3 hPa
08:48 16.1 °C 12.5 °C 79 % 3 km/h (4 km/h) 0 mm0 mm 60000 m 1025.3 hPa
08:42 15.7 °C 12.4 °C 81 % 3 km/h (4 km/h) 0 mm0 mm 60000 m 1025.2 hPa
08:36 15.4 °C 12.2 °C 81 % 3 km/h (4 km/h) 0 mm0 mm 60000 m 1025.3 hPa
08:30 15.1 °C 11.9 °C 81 % 2 km/h (4 km/h) 0 mm0 mm 60000 m 1025.3 hPa
08:24 14.8 °C 11.8 °C 82 % 3 km/h (4 km/h) 0 mm0 mm 60000 m 1025.3 hPa
08:18 14.7 °C 12 °C 84 % 0 km/h (3 km/h) 0 mm0 mm 60000 m 1025.2 hPa
08:12 13.6 °C 11.8 °C 89 % 0 km/h (2 km/h) 0 mm0 mm 60000 m 1025.4 hPa
08:06 12.7 °C 11.3 °C 91 % 0 km/h (2 km/h) 0 mm0 mm 60000 m 1025.5 hPa
08:00 12.1 °C 11 °C 93 % 0 km/h (3 km/h) 0 mm0 mm 60000 m 1025.4 hPa
07:54 11.9 °C 10.8 °C 93 % 2 km/h (4 km/h) 0 mm0 mm 60000 m 1025.3 hPa
07:48 11.9 °C 10.6 °C 92 % 3 km/h (4 km/h) 0 mm0 mm 60000 m 1025.3 hPa
07:42 11.6 °C 10.8 °C 95 % 3 km/h (4 km/h) 0 mm0 mm 60000 m 1025.3 hPa
07:36 11.3 °C 10.8 °C 97 % 3 km/h (4 km/h) 0 mm0 mm 60000 m 1025.3 hPa
07:30 11.2 °C 10.6 °C 96 % 2 km/h (3 km/h) 0 mm0 mm 60000 m 1025.4 hPa
07:24 11.3 °C 10.5 °C 95 % 0 km/h (3 km/h) 0 mm0 mm 60000 m 1025.4 hPa
07:18 11.4 °C 10.8 °C 96 % 0 km/h (3 km/h) 0 mm0 mm 60000 m 1025.4 hPa
07:12 11.4 °C 10.6 °C 95 % 0 km/h (2 km/h) 0 mm0 mm 60000 m 1025.4 hPa
07:06 11.4 °C 10.5 °C 94 % 0 km/h (2 km/h) 0 mm0 mm 60000 m 1025.3 hPa
07:00 11.6 °C 10.7 °C 94 % 0 km/h (0 km/h) 0 mm0 mm 60000 m 1025.2 hPa
06:54 11.7 °C 10.8 °C 94 % 0 km/h (2 km/h) 0 mm0 mm 60000 m 1025.2 hPa
06:48 11.7 °C 10.8 °C 94 % 0 km/h (2 km/h) 0 mm0 mm 60000 m 1025.1 hPa
06:42 11.7 °C 10.6 °C 93 % 2 km/h (4 km/h) 0 mm0 mm 60000 m 1025 hPa
06:36 11.8 °C 10.5 °C 92 % 2 km/h (4 km/h) 0 mm0 mm 60000 m 1024.9 hPa
06:30 12 °C 10.7 °C 92 % 2 km/h (3 km/h) 0 mm0 mm 60000 m 1024.9 hPa
06:24 12.1 °C 11 °C 93 % 2 km/h (4 km/h) 0 mm0 mm 60000 m 1024.9 hPa
06:18 12.2 °C 11.1 °C 93 % 0 km/h (4 km/h) 0 mm0 mm 60000 m 1024.9 hPa
06:12 12.2 °C 10.9 °C 92 % 2 km/h (4 km/h) 0 mm0 mm 60000 m 1024.9 hPa
06:06 12.3 °C 11 °C 92 % 3 km/h (6 km/h) 0 mm0 mm 60000 m 1024.7 hPa
06:00 12.3 °C 11.2 °C 93 % 5 km/h (8 km/h) 0 mm0 mm 60000 m 1024.7 hPa
05:54 12.5 °C 11.4 °C 93 % 5 km/h (8 km/h) 0 mm0 mm 60000 m 1024.7 hPa
05:48 12.2 °C 11.1 °C 93 % 5 km/h (8 km/h) 0 mm0 mm 60000 m 1024.7 hPa
05:42 12 °C 10.9 °C 93 % 4 km/h (8 km/h) 0 mm0 mm 60000 m 1024.8 hPa
05:36 12.1 °C 10.8 °C 92 % 4 km/h (6 km/h) 0 mm0 mm 60000 m 1024.7 hPa
05:30 12.2 °C 11.1 °C 93 % 4 km/h (7 km/h) 0 mm0 mm 60000 m 1024.6 hPa
05:24 12.1 °C 11 °C 93 % 4 km/h (7 km/h) 0 mm0 mm 60000 m 1024.8 hPa
05:18 12.1 °C 10.8 °C 92 % 2 km/h (5 km/h) 0 mm0 mm 60000 m 1024.8 hPa
05:12 12.2 °C 10.9 °C 92 % 0 km/h (3 km/h) 0 mm0 mm 60000 m 1024.7 hPa
05:06 12.2 °C 10.9 °C 92 % 0 km/h (2 km/h) 0 mm0 mm 60000 m 1024.7 hPa
05:00 12.3 °C 10.9 °C 91 % 2 km/h (2 km/h) 0 mm0 mm 60000 m 1024.7 hPa
04:54 12.2 °C 10.9 °C 92 % 2 km/h (2 km/h) 0 mm0 mm 60000 m 1024.7 hPa
04:48 12.3 °C 10.9 °C 91 % 0 km/h (2 km/h) 0 mm0 mm 60000 m 1024.7 hPa
04:42 12.3 °C 10.9 °C 91 % 0 km/h (0 km/h) 0 mm0 mm 60000 m 1024.6 hPa
04:36 12.4 °C 11 °C 91 % 0 km/h (0 km/h) 0 mm0 mm 60000 m 1024.6 hPa
04:30 12.4 °C 11 °C 91 % 0 km/h (2 km/h) 0 mm0 mm 60000 m 1024.6 hPa
04:24 12.6 °C 11 °C 90 % 2 km/h (3 km/h) 0 mm0 mm 60000 m 1024.6 hPa
04:18 12.8 °C 11.2 °C 90 % 0 km/h (3 km/h) 0 mm0 mm 60000 m 1024.6 hPa
04:12 12.8 °C 11 °C 89 % 0 km/h (0 km/h) 0 mm0 mm 60000 m 1024.6 hPa
04:06 12.9 °C 11.1 °C 89 % 0 km/h (0 km/h) 0 mm0 mm 60000 m 1024.6 hPa
04:00 12.9 °C 11.1 °C 89 % 0 km/h (0 km/h) 0 mm0 mm 60000 m 1024.7 hPa
03:54 12.9 °C 11.1 °C 89 % 0 km/h (0 km/h) 0 mm0 mm 60000 m 1024.7 hPa
03:48 13 °C 11.2 °C 89 % 0 km/h (0 km/h) 0 mm0 mm 60000 m 1024.6 hPa
03:42 13 °C 11.2 °C 89 % 0 km/h (2 km/h) 0 mm0 mm 60000 m 1024.6 hPa
03:36 13.1 °C 11.2 °C 88 % 0 km/h (3 km/h) 0 mm0 mm 60000 m 1024.6 hPa
03:30 13.2 °C 11.3 °C 88 % 0 km/h (4 km/h) 0 mm0 mm 60000 m 1024.7 hPa
03:24 13.3 °C 11.2 °C 87 % 3 km/h (5 km/h) 0 mm0 mm 60000 m 1024.7 hPa
03:18 13.5 °C 11.2 °C 86 % 3 km/h (5 km/h) 0 mm0 mm 60000 m 1024.8 hPa
03:12 13.6 °C 11.3 °C 86 % 3 km/h (5 km/h) 0 mm0 mm 60000 m 1024.8 hPa
03:06 13.7 °C 11.4 °C 86 % 4 km/h (8 km/h) 0 mm0 mm 60000 m 1024.8 hPa
03:00 13.9 °C 11.2 °C 84 % 7 km/h (9 km/h) 0 mm0 mm 60000 m 1024.7 hPa
02:54 14.1 °C 11.6 °C 85 % 7 km/h (9 km/h) 0 mm0 mm 60000 m 1024.7 hPa
02:48 13.9 °C 11.6 °C 86 % 7 km/h (8 km/h) 0 mm0 mm 60000 m 1024.7 hPa
02:42 13.9 °C 11.4 °C 85 % 6 km/h (7 km/h) 0 mm0 mm 60000 m 1024.8 hPa
02:36 14 °C 11.7 °C 86 % 5 km/h (7 km/h) 0 mm0 mm 60000 m 1024.7 hPa
02:30 13.9 °C 11.2 °C 84 % 4 km/h (7 km/h) 0 mm0 mm 60000 m 1024.8 hPa
02:24 14.1 °C 11.4 °C 84 % 3 km/h (4 km/h) 0 mm0 mm 60000 m 1024.7 hPa
02:18 14.1 °C 11.4 °C 84 % 0 km/h (3 km/h) 0 mm0 mm 60000 m 1024.7 hPa
02:12 14.1 °C 11.4 °C 84 % 0 km/h (0 km/h) 0 mm0 mm 60000 m 1024.7 hPa
02:06 14.2 °C 11.4 °C 83 % 0 km/h (0 km/h) 0 mm0 mm 60000 m 1024.8 hPa
02:00 14.3 °C 11.4 °C 83 % 0 km/h (3 km/h) 0 mm0 mm 60000 m 1024.8 hPa
01:54 14.3 °C 11.3 °C 82 % 3 km/h (4 km/h) 0 mm0 mm 60000 m 1024.8 hPa
01:48 14.4 °C 11.4 °C 82 % 2 km/h (4 km/h) 0 mm0 mm 60000 m 1024.8 hPa
01:42 14.6 °C 11.4 °C 81 % 3 km/h (5 km/h) 0 mm0 mm 60000 m 1024.8 hPa
01:36 14.7 °C 11.5 °C 81 % 4 km/h (5 km/h) 0 mm0 mm 60000 m 1024.6 hPa
01:30 14.8 °C 11.4 °C 80 % 4 km/h (5 km/h) 0 mm0 mm 60000 m 1024.7 hPa
01:24 14.9 °C 11.5 °C 80 % 3 km/h (5 km/h) 0 mm0 mm 60000 m 1024.6 hPa
01:18 15.1 °C 11.5 °C 79 % 3 km/h (5 km/h) 0 mm0 mm 60000 m 1024.6 hPa
01:12 15.2 °C 11.6 °C 79 % 3 km/h (5 km/h) 0 mm0 mm 60000 m 1024.6 hPa
01:06 15.2 °C 11.6 °C 79 % 3 km/h (4 km/h) 0 mm0 mm 60000 m 1024.7 hPa
01:00 15.4 °C 11.6 °C 78 % 3 km/h (5 km/h) 0 mm0 mm 60000 m 1024.6 hPa
00:54 15.5 °C 11.5 °C 77 % 3 km/h (5 km/h) 0 mm0 mm 60000 m 1024.7 hPa
00:48 15.6 °C 11.6 °C 77 % 4 km/h (6 km/h) 0 mm0 mm 60000 m 1024.6 hPa
00:42 15.8 °C 11.6 °C 76 % 4 km/h (6 km/h) 0 mm0 mm 60000 m 1024.6 hPa
00:36 16.1 °C 11.5 °C 74 % 2 km/h (4 km/h) 0 mm0 mm 60000 m 1024.5 hPa
00:30 16.2 °C 11.8 °C 75 % 3 km/h (4 km/h) 0 mm0 mm 60000 m 1024.4 hPa
00:24 16.3 °C 11.7 °C 74 % 3 km/h (4 km/h) 0 mm0 mm 60000 m 1024.4 hPa
00:18 16.5 °C 11.4 °C 72 % 3 km/h (4 km/h) 0 mm0 mm 60000 m 1024.4 hPa
00:12 16.9 °C 11.8 °C 72 % 4 km/h (6 km/h) 0 mm0 mm 60000 m 1024.4 hPa
00:06 16.9 °C 12 °C 73 % 4 km/h (7 km/h) 0 mm0 mm 60000 m 1024.4 hPa
00:00 16.8 °C 11.7 °C 72 % 4 km/h (7 km/h) 0 mm0 mm 60000 m 1024.4 hPa

Données via Météo-France

Relevés météo à Brive-Souillac

Cette page rassemble les observations de la station de Brive-Souillac : température, humidité, vent, précipitations et pression atmosphérique. Les graphiques facilitent le suivi de la journée, tandis que le tableau donne accès aux mesures horaires et infra-horaires disponibles.

Pour replacer ces mesures dans leur contexte, consultez la climatologie de Brive-Souillac ainsi que ses normales et records. Retrouvez aussi la carte des observations météo en temps réel.